sensor_id;sensor_type;location;lat;lon;timestamp;P1;durP1;ratioP1;P2;durP2;ratioP2
69008;SDS011;56065;52.472;13.380;2022-10-24T00:00:53;11.00;;;5.13;;
69008;SDS011;56065;52.472;13.380;2022-10-24T00:03:18;11.30;;;4.93;;
69008;SDS011;56065;52.472;13.380;2022-10-24T00:05:44;12.27;;;4.60;;
69008;SDS011;56065;52.472;13.380;2022-10-24T00:08:11;13.75;;;5.43;;
69008;SDS011;56065;52.472;13.380;2022-10-24T00:10:44;14.60;;;5.00;;
69008;SDS011;56065;52.472;13.380;2022-10-24T00:13:13;11.87;;;4.63;;
69008;SDS011;56065;52.472;13.380;2022-10-24T00:15:42;13.43;;;6.10;;
69008;SDS011;56065;52.472;13.380;2022-10-24T00:18:13;10.82;;;4.82;;
69008;SDS011;56065;52.472;13.380;2022-10-24T00:20:39;14.13;;;5.90;;
69008;SDS011;56065;52.472;13.380;2022-10-24T00:23:05;11.80;;;5.45;;
69008;SDS011;56065;52.472;13.380;2022-10-24T00:25:30;15.27;;;6.20;;
69008;SDS011;56065;52.472;13.380;2022-10-24T00:27:56;11.33;;;5.30;;
69008;SDS011;56065;52.472;13.380;2022-10-24T00:30:21;12.07;;;5.27;;
69008;SDS011;56065;52.472;13.380;2022-10-24T00:32:47;13.67;;;6.67;;
69008;SDS011;56065;52.472;13.380;2022-10-24T00:35:12;11.88;;;4.97;;
69008;SDS011;56065;52.472;13.380;2022-10-24T00:37:37;12.90;;;5.70;;
69008;SDS011;56065;52.472;13.380;2022-10-24T00:40:03;14.13;;;6.20;;
69008;SDS011;56065;52.472;13.380;2022-10-24T00:42:30;13.82;;;5.93;;
69008;SDS011;56065;52.472;13.380;2022-10-24T00:44:55;12.43;;;6.17;;
69008;SDS011;56065;52.472;13.380;2022-10-24T00:47:22;10.83;;;5.47;;
69008;SDS011;56065;52.472;13.380;2022-10-24T00:49:51;14.32;;;6.03;;
69008;SDS011;56065;52.472;13.380;2022-10-24T00:52:25;10.75;;;4.70;;
69008;SDS011;56065;52.472;13.380;2022-10-24T00:54:53;15.10;;;6.28;;
69008;SDS011;56065;52.472;13.380;2022-10-24T00:57:26;16.83;;;6.90;;
69008;SDS011;56065;52.472;13.380;2022-10-24T00:59:59;10.73;;;4.27;;
69008;SDS011;56065;52.472;13.380;2022-10-24T01:02:28;12.65;;;4.93;;
69008;SDS011;56065;52.472;13.380;2022-10-24T01:04:54;11.70;;;5.40;;
69008;SDS011;56065;52.472;13.380;2022-10-24T01:13:02;10.98;;;4.88;;
69008;SDS011;56065;52.472;13.380;2022-10-24T01:15:59;10.98;;;4.47;;
69008;SDS011;56065;52.472;13.380;2022-10-24T01:18:52;9.95;;;4.32;;
69008;SDS011;56065;52.472;13.380;2022-10-24T01:21:28;12.30;;;4.68;;
69008;SDS011;56065;52.472;13.380;2022-10-24T01:32:11;10.45;;;4.20;;
69008;SDS011;56065;52.472;13.380;2022-10-24T01:34:59;13.18;;;5.50;;
69008;SDS011;56065;52.472;13.380;2022-10-24T01:37:36;10.20;;;4.63;;
69008;SDS011;56065;52.472;13.380;2022-10-24T01:40:10;10.33;;;4.87;;
69008;SDS011;56065;52.472;13.380;2022-10-24T01:42:40;12.32;;;5.00;;
69008;SDS011;56065;52.472;13.380;2022-10-24T01:45:08;10.98;;;5.30;;
69008;SDS011;56065;52.472;13.380;2022-10-24T01:47:47;9.43;;;4.50;;
69008;SDS011;56065;52.472;13.380;2022-10-24T01:50:17;11.50;;;5.13;;
69008;SDS011;56065;52.472;13.380;2022-10-24T01:52:45;13.57;;;5.17;;
69008;SDS011;56065;52.472;13.380;2022-10-24T01:55:12;12.18;;;4.95;;
69008;SDS011;56065;52.472;13.380;2022-10-24T01:57:37;11.02;;;5.03;;
69008;SDS011;56065;52.472;13.380;2022-10-24T02:00:04;11.93;;;5.60;;
69008;SDS011;56065;52.472;13.380;2022-10-24T02:02:41;12.93;;;5.20;;
69008;SDS011;56065;52.472;13.380;2022-10-24T02:05:42;12.52;;;6.57;;
69008;SDS011;56065;52.472;13.380;2022-10-24T02:08:06;12.00;;;5.45;;
69008;SDS011;56065;52.472;13.380;2022-10-24T02:10:36;12.82;;;5.25;;
69008;SDS011;56065;52.472;13.380;2022-10-24T02:13:41;11.17;;;4.63;;
69008;SDS011;56065;52.472;13.380;2022-10-24T02:16:10;10.60;;;4.35;;
69008;SDS011;56065;52.472;13.380;2022-10-24T02:18:40;14.93;;;5.95;;
69008;SDS011;56065;52.472;13.380;2022-10-24T02:21:08;12.50;;;5.80;;
69008;SDS011;56065;52.472;13.380;2022-10-24T02:23:49;15.13;;;6.03;;
69008;SDS011;56065;52.472;13.380;2022-10-24T02:28:53;16.58;;;5.78;;
69008;SDS011;56065;52.472;13.380;2022-10-24T02:31:22;13.05;;;5.38;;
69008;SDS011;56065;52.472;13.380;2022-10-24T02:33:50;10.23;;;4.47;;
69008;SDS011;56065;52.472;13.380;2022-10-24T02:36:18;13.27;;;5.78;;
69008;SDS011;56065;52.472;13.380;2022-10-24T02:38:45;12.18;;;5.57;;
69008;SDS011;56065;52.472;13.380;2022-10-24T02:41:15;11.07;;;4.95;;
69008;SDS011;56065;52.472;13.380;2022-10-24T02:43:45;13.45;;;5.18;;
69008;SDS011;56065;52.472;13.380;2022-10-24T02:46:13;11.33;;;5.40;;
69008;SDS011;56065;52.472;13.380;2022-10-24T02:48:41;9.10;;;4.53;;
69008;SDS011;56065;52.472;13.380;2022-10-24T02:51:12;10.20;;;5.10;;
69008;SDS011;56065;52.472;13.380;2022-10-24T02:53:38;12.00;;;4.88;;
69008;SDS011;56065;52.472;13.380;2022-10-24T02:56:05;9.93;;;4.72;;
69008;SDS011;56065;52.472;13.380;2022-10-24T02:58:30;10.50;;;4.93;;
69008;SDS011;56065;52.472;13.380;2022-10-24T03:00:56;12.10;;;5.10;;
69008;SDS011;56065;52.472;13.380;2022-10-24T03:03:21;12.67;;;5.23;;
69008;SDS011;56065;52.472;13.380;2022-10-24T03:05:47;12.10;;;5.38;;
69008;SDS011;56065;52.472;13.380;2022-10-24T03:08:13;9.77;;;4.00;;
69008;SDS011;56065;52.472;13.380;2022-10-24T03:10:38;10.02;;;3.97;;
69008;SDS011;56065;52.472;13.380;2022-10-24T03:13:04;9.97;;;4.77;;
69008;SDS011;56065;52.472;13.380;2022-10-24T03:15:29;10.27;;;4.23;;
69008;SDS011;56065;52.472;13.380;2022-10-24T03:17:55;10.50;;;3.73;;
69008;SDS011;56065;52.472;13.380;2022-10-24T03:20:20;11.20;;;4.43;;
69008;SDS011;56065;52.472;13.380;2022-10-24T03:22:45;9.47;;;4.43;;
69008;SDS011;56065;52.472;13.380;2022-10-24T03:25:11;9.50;;;4.13;;
69008;SDS011;56065;52.472;13.380;2022-10-24T03:27:36;11.30;;;4.78;;
69008;SDS011;56065;52.472;13.380;2022-10-24T03:30:02;11.03;;;4.83;;
69008;SDS011;56065;52.472;13.380;2022-10-24T03:32:28;12.30;;;4.15;;
69008;SDS011;56065;52.472;13.380;2022-10-24T03:34:54;12.47;;;4.43;;
69008;SDS011;56065;52.472;13.380;2022-10-24T03:37:19;10.50;;;3.63;;
69008;SDS011;56065;52.472;13.380;2022-10-24T03:39:44;12.47;;;4.00;;
69008;SDS011;56065;52.472;13.380;2022-10-24T03:42:10;10.93;;;4.50;;
69008;SDS011;56065;52.472;13.380;2022-10-24T03:44:35;9.63;;;4.43;;
69008;SDS011;56065;52.472;13.380;2022-10-24T03:47:01;11.77;;;4.10;;
69008;SDS011;56065;52.472;13.380;2022-10-24T03:49:26;11.85;;;4.88;;
69008;SDS011;56065;52.472;13.380;2022-10-24T03:51:52;10.13;;;4.40;;
69008;SDS011;56065;52.472;13.380;2022-10-24T03:54:17;11.67;;;4.20;;
69008;SDS011;56065;52.472;13.380;2022-10-24T03:56:43;9.83;;;4.63;;
69008;SDS011;56065;52.472;13.380;2022-10-24T03:59:09;9.60;;;4.22;;
69008;SDS011;56065;52.472;13.380;2022-10-24T04:01:34;10.20;;;4.10;;
69008;SDS011;56065;52.472;13.380;2022-10-24T04:04:00;11.25;;;4.00;;
69008;SDS011;56065;52.472;13.380;2022-10-24T04:06:25;10.87;;;3.93;;
69008;SDS011;56065;52.472;13.380;2022-10-24T04:08:51;11.90;;;3.93;;
69008;SDS011;56065;52.472;13.380;2022-10-24T04:11:16;11.68;;;3.83;;
69008;SDS011;56065;52.472;13.380;2022-10-24T04:13:42;9.90;;;3.87;;
69008;SDS011;56065;52.472;13.380;2022-10-24T04:16:07;9.17;;;3.33;;
69008;SDS011;56065;52.472;13.380;2022-10-24T04:18:33;8.47;;;3.63;;
69008;SDS011;56065;52.472;13.380;2022-10-24T04:20:59;8.52;;;3.72;;
69008;SDS011;56065;52.472;13.380;2022-10-24T04:23:24;9.07;;;3.77;;
69008;SDS011;56065;52.472;13.380;2022-10-24T04:25:50;9.43;;;4.13;;
69008;SDS011;56065;52.472;13.380;2022-10-24T04:28:16;9.53;;;4.70;;
69008;SDS011;56065;52.472;13.380;2022-10-24T04:30:41;11.90;;;4.13;;
69008;SDS011;56065;52.472;13.380;2022-10-24T04:33:07;9.00;;;3.63;;
69008;SDS011;56065;52.472;13.380;2022-10-24T04:35:33;9.10;;;3.67;;
69008;SDS011;56065;52.472;13.380;2022-10-24T04:37:58;9.30;;;3.80;;
69008;SDS011;56065;52.472;13.380;2022-10-24T04:40:23;8.60;;;3.70;;
69008;SDS011;56065;52.472;13.380;2022-10-24T04:42:49;10.30;;;3.90;;
69008;SDS011;56065;52.472;13.380;2022-10-24T04:45:14;10.63;;;3.90;;
69008;SDS011;56065;52.472;13.380;2022-10-24T04:47:40;10.00;;;4.18;;
69008;SDS011;56065;52.472;13.380;2022-10-24T04:50:05;11.07;;;3.87;;
69008;SDS011;56065;52.472;13.380;2022-10-24T04:52:31;9.93;;;3.77;;
69008;SDS011;56065;52.472;13.380;2022-10-24T04:54:56;11.10;;;3.50;;
69008;SDS011;56065;52.472;13.380;2022-10-24T04:57:21;10.95;;;3.97;;
69008;SDS011;56065;52.472;13.380;2022-10-24T04:59:47;9.07;;;3.70;;
69008;SDS011;56065;52.472;13.380;2022-10-24T05:02:13;10.40;;;4.13;;
69008;SDS011;56065;52.472;13.380;2022-10-24T05:04:38;8.60;;;3.93;;
69008;SDS011;56065;52.472;13.380;2022-10-24T05:07:03;10.93;;;4.18;;
69008;SDS011;56065;52.472;13.380;2022-10-24T05:09:29;9.87;;;3.70;;
69008;SDS011;56065;52.472;13.380;2022-10-24T05:11:54;10.63;;;3.77;;
69008;SDS011;56065;52.472;13.380;2022-10-24T05:14:20;8.80;;;4.22;;
69008;SDS011;56065;52.472;13.380;2022-10-24T05:16:46;8.63;;;4.00;;
69008;SDS011;56065;52.472;13.380;2022-10-24T05:19:13;10.07;;;4.38;;
69008;SDS011;56065;52.472;13.380;2022-10-24T05:21:39;11.13;;;4.07;;
69008;SDS011;56065;52.472;13.380;2022-10-24T05:24:04;8.53;;;3.60;;
69008;SDS011;56065;52.472;13.380;2022-10-24T05:26:30;12.20;;;4.00;;
69008;SDS011;56065;52.472;13.380;2022-10-24T05:28:55;9.77;;;3.90;;
69008;SDS011;56065;52.472;13.380;2022-10-24T05:31:21;8.60;;;3.70;;
69008;SDS011;56065;52.472;13.380;2022-10-24T05:33:46;8.97;;;3.60;;
69008;SDS011;56065;52.472;13.380;2022-10-24T05:36:11;9.13;;;4.03;;
69008;SDS011;56065;52.472;13.380;2022-10-24T05:38:37;12.77;;;5.00;;
69008;SDS011;56065;52.472;13.380;2022-10-24T05:41:02;9.60;;;3.97;;
69008;SDS011;56065;52.472;13.380;2022-10-24T05:43:28;10.17;;;4.00;;
69008;SDS011;56065;52.472;13.380;2022-10-24T05:45:53;7.70;;;3.67;;
69008;SDS011;56065;52.472;13.380;2022-10-24T05:48:18;11.23;;;4.40;;
69008;SDS011;56065;52.472;13.380;2022-10-24T05:50:44;11.57;;;4.80;;
69008;SDS011;56065;52.472;13.380;2022-10-24T05:53:09;13.87;;;5.03;;
69008;SDS011;56065;52.472;13.380;2022-10-24T05:55:34;11.67;;;4.13;;
69008;SDS011;56065;52.472;13.380;2022-10-24T05:58:00;10.57;;;4.57;;
69008;SDS011;56065;52.472;13.380;2022-10-24T06:00:26;11.43;;;4.53;;
69008;SDS011;56065;52.472;13.380;2022-10-24T06:02:52;10.30;;;4.30;;
69008;SDS011;56065;52.472;13.380;2022-10-24T06:05:17;11.80;;;4.73;;
69008;SDS011;56065;52.472;13.380;2022-10-24T06:07:43;9.20;;;4.65;;
69008;SDS011;56065;52.472;13.380;2022-10-24T06:10:08;12.37;;;5.17;;
69008;SDS011;56065;52.472;13.380;2022-10-24T06:12:35;13.13;;;4.22;;
69008;SDS011;56065;52.472;13.380;2022-10-24T06:15:00;10.30;;;4.43;;
69008;SDS011;56065;52.472;13.380;2022-10-24T06:17:27;13.18;;;4.63;;
69008;SDS011;56065;52.472;13.380;2022-10-24T06:19:52;9.57;;;4.13;;
69008;SDS011;56065;52.472;13.380;2022-10-24T06:22:17;13.20;;;4.83;;
69008;SDS011;56065;52.472;13.380;2022-10-24T06:24:43;9.27;;;3.60;;
69008;SDS011;56065;52.472;13.380;2022-10-24T06:27:09;10.50;;;3.80;;
69008;SDS011;56065;52.472;13.380;2022-10-24T06:29:34;10.40;;;4.25;;
69008;SDS011;56065;52.472;13.380;2022-10-24T06:32:00;11.83;;;4.77;;
69008;SDS011;56065;52.472;13.380;2022-10-24T06:34:26;9.45;;;4.10;;
69008;SDS011;56065;52.472;13.380;2022-10-24T06:36:51;10.27;;;4.33;;
69008;SDS011;56065;52.472;13.380;2022-10-24T06:39:17;9.07;;;4.45;;
69008;SDS011;56065;52.472;13.380;2022-10-24T06:41:43;9.67;;;3.97;;
69008;SDS011;56065;52.472;13.380;2022-10-24T06:44:08;14.00;;;4.53;;
69008;SDS011;56065;52.472;13.380;2022-10-24T06:46:33;10.13;;;3.83;;
69008;SDS011;56065;52.472;13.380;2022-10-24T06:48:59;14.97;;;4.57;;
69008;SDS011;56065;52.472;13.380;2022-10-24T06:51:24;14.27;;;4.53;;
69008;SDS011;56065;52.472;13.380;2022-10-24T06:53:50;11.43;;;4.57;;
69008;SDS011;56065;52.472;13.380;2022-10-24T06:56:15;12.80;;;5.57;;
69008;SDS011;56065;52.472;13.380;2022-10-24T06:58:42;14.18;;;5.13;;
69008;SDS011;56065;52.472;13.380;2022-10-24T07:01:21;13.85;;;4.85;;
69008;SDS011;56065;52.472;13.380;2022-10-24T07:03:48;12.55;;;4.45;;
69008;SDS011;56065;52.472;13.380;2022-10-24T07:06:18;14.87;;;4.63;;
69008;SDS011;56065;52.472;13.380;2022-10-24T07:08:46;14.77;;;4.20;;
69008;SDS011;56065;52.472;13.380;2022-10-24T07:11:12;9.98;;;3.35;;
69008;SDS011;56065;52.472;13.380;2022-10-24T07:13:38;11.68;;;3.80;;
69008;SDS011;56065;52.472;13.380;2022-10-24T07:16:03;10.03;;;3.63;;
69008;SDS011;56065;52.472;13.380;2022-10-24T07:18:30;11.73;;;4.00;;
69008;SDS011;56065;52.472;13.380;2022-10-24T07:20:59;12.93;;;4.33;;
69008;SDS011;56065;52.472;13.380;2022-10-24T07:23:29;11.55;;;4.28;;
69008;SDS011;56065;52.472;13.380;2022-10-24T07:25:59;9.30;;;3.47;;
69008;SDS011;56065;52.472;13.380;2022-10-24T07:28:29;14.57;;;4.43;;
69008;SDS011;56065;52.472;13.380;2022-10-24T07:30:55;12.70;;;4.20;;
69008;SDS011;56065;52.472;13.380;2022-10-24T07:33:20;9.77;;;3.70;;
69008;SDS011;56065;52.472;13.380;2022-10-24T07:35:46;11.35;;;3.20;;
69008;SDS011;56065;52.472;13.380;2022-10-24T07:38:11;11.80;;;3.47;;
69008;SDS011;56065;52.472;13.380;2022-10-24T07:40:36;9.53;;;3.07;;
69008;SDS011;56065;52.472;13.380;2022-10-24T07:43:02;11.27;;;3.60;;
69008;SDS011;56065;52.472;13.380;2022-10-24T07:45:27;9.20;;;2.90;;
69008;SDS011;56065;52.472;13.380;2022-10-24T07:47:53;12.77;;;3.78;;
69008;SDS011;56065;52.472;13.380;2022-10-24T07:50:19;13.40;;;3.70;;
69008;SDS011;56065;52.472;13.380;2022-10-24T07:52:45;9.32;;;2.90;;
69008;SDS011;56065;52.472;13.380;2022-10-24T07:55:10;7.50;;;2.77;;
69008;SDS011;56065;52.472;13.380;2022-10-24T07:57:35;9.87;;;3.30;;
69008;SDS011;56065;52.472;13.380;2022-10-24T08:00:01;7.80;;;2.73;;
69008;SDS011;56065;52.472;13.380;2022-10-24T08:02:27;13.13;;;2.83;;
69008;SDS011;56065;52.472;13.380;2022-10-24T08:04:52;10.03;;;3.00;;
69008;SDS011;56065;52.472;13.380;2022-10-24T08:07:18;12.67;;;2.90;;
69008;SDS011;56065;52.472;13.380;2022-10-24T08:09:45;9.40;;;2.90;;
69008;SDS011;56065;52.472;13.380;2022-10-24T08:12:11;9.60;;;3.10;;
69008;SDS011;56065;52.472;13.380;2022-10-24T08:14:37;17.52;;;3.10;;
69008;SDS011;56065;52.472;13.380;2022-10-24T08:17:04;10.17;;;2.80;;
69008;SDS011;56065;52.472;13.380;2022-10-24T08:19:30;13.07;;;3.17;;
69008;SDS011;56065;52.472;13.380;2022-10-24T08:21:56;9.67;;;3.40;;
69008;SDS011;56065;52.472;13.380;2022-10-24T08:24:22;8.45;;;2.53;;
69008;SDS011;56065;52.472;13.380;2022-10-24T08:26:48;11.73;;;2.97;;
69008;SDS011;56065;52.472;13.380;2022-10-24T08:29:13;11.93;;;2.92;;
69008;SDS011;56065;52.472;13.380;2022-10-24T08:31:47;13.70;;;3.73;;
69008;SDS011;56065;52.472;13.380;2022-10-24T08:34:13;14.30;;;3.00;;
69008;SDS011;56065;52.472;13.380;2022-10-24T08:36:39;8.37;;;2.37;;
69008;SDS011;56065;52.472;13.380;2022-10-24T08:39:04;10.27;;;3.00;;
69008;SDS011;56065;52.472;13.380;2022-10-24T08:41:30;11.55;;;3.00;;
69008;SDS011;56065;52.472;13.380;2022-10-24T08:44:01;10.93;;;2.60;;
69008;SDS011;56065;52.472;13.380;2022-10-24T08:46:36;12.13;;;3.08;;
69008;SDS011;56065;52.472;13.380;2022-10-24T08:49:17;10.20;;;2.70;;
69008;SDS011;56065;52.472;13.380;2022-10-24T08:51:50;10.10;;;2.58;;
69008;SDS011;56065;52.472;13.380;2022-10-24T08:54:20;9.93;;;2.53;;
69008;SDS011;56065;52.472;13.380;2022-10-24T08:56:51;7.43;;;2.20;;
69008;SDS011;56065;52.472;13.380;2022-10-24T08:59:19;9.70;;;2.53;;
69008;SDS011;56065;52.472;13.380;2022-10-24T09:04:49;10.90;;;2.03;;
69008;SDS011;56065;52.472;13.380;2022-10-24T09:07:20;9.48;;;2.85;;
69008;SDS011;56065;52.472;13.380;2022-10-24T09:09:47;11.40;;;2.65;;
69008;SDS011;56065;52.472;13.380;2022-10-24T09:12:16;9.00;;;2.20;;
69008;SDS011;56065;52.472;13.380;2022-10-24T09:14:44;11.15;;;2.45;;
69008;SDS011;56065;52.472;13.380;2022-10-24T09:17:31;12.40;;;2.40;;
69008;SDS011;56065;52.472;13.380;2022-10-24T09:20:11;8.85;;;2.22;;
69008;SDS011;56065;52.472;13.380;2022-10-24T09:22:49;9.23;;;2.25;;
69008;SDS011;56065;52.472;13.380;2022-10-24T09:25:19;10.65;;;1.90;;
69008;SDS011;56065;52.472;13.380;2022-10-24T09:27:47;8.98;;;2.10;;
69008;SDS011;56065;52.472;13.380;2022-10-24T09:30:20;9.60;;;2.20;;
69008;SDS011;56065;52.472;13.380;2022-10-24T09:32:48;9.93;;;2.00;;
69008;SDS011;56065;52.472;13.380;2022-10-24T09:35:16;8.23;;;1.83;;
69008;SDS011;56065;52.472;13.380;2022-10-24T09:37:48;11.33;;;3.00;;
69008;SDS011;56065;52.472;13.380;2022-10-24T09:42:46;9.85;;;1.85;;
69008;SDS011;56065;52.472;13.380;2022-10-24T09:45:28;8.75;;;2.38;;
69008;SDS011;56065;52.472;13.380;2022-10-24T09:48:04;9.50;;;1.83;;
69008;SDS011;56065;52.472;13.380;2022-10-24T09:50:40;12.23;;;2.30;;
69008;SDS011;56065;52.472;13.380;2022-10-24T09:53:13;7.82;;;1.85;;
69008;SDS011;56065;52.472;13.380;2022-10-24T09:55:47;11.90;;;2.10;;
69008;SDS011;56065;52.472;13.380;2022-10-24T09:58:17;8.45;;;1.75;;
69008;SDS011;56065;52.472;13.380;2022-10-24T10:00:44;12.35;;;2.35;;
69008;SDS011;56065;52.472;13.380;2022-10-24T10:03:22;8.40;;;1.90;;
69008;SDS011;56065;52.472;13.380;2022-10-24T10:05:48;6.88;;;2.20;;
69008;SDS011;56065;52.472;13.380;2022-10-24T10:08:16;10.45;;;2.55;;
69008;SDS011;56065;52.472;13.380;2022-10-24T10:10:53;10.02;;;2.30;;
69008;SDS011;56065;52.472;13.380;2022-10-24T10:13:21;9.47;;;2.30;;
69008;SDS011;56065;52.472;13.380;2022-10-24T10:15:58;9.48;;;2.42;;
69008;SDS011;56065;52.472;13.380;2022-10-24T10:23:40;8.80;;;2.28;;
69008;SDS011;56065;52.472;13.380;2022-10-24T10:26:15;7.93;;;1.77;;
69008;SDS011;56065;52.472;13.380;2022-10-24T10:31:43;11.73;;;2.00;;
69008;SDS011;56065;52.472;13.380;2022-10-24T10:34:13;9.50;;;1.70;;
69008;SDS011;56065;52.472;13.380;2022-10-24T10:36:46;8.45;;;1.90;;
69008;SDS011;56065;52.472;13.380;2022-10-24T10:45:02;11.43;;;2.00;;
69008;SDS011;56065;52.472;13.380;2022-10-24T10:50:58;6.85;;;1.63;;
69008;SDS011;56065;52.472;13.380;2022-10-24T10:53:41;10.87;;;1.73;;
69008;SDS011;56065;52.472;13.380;2022-10-24T11:10:25;9.38;;;1.90;;
69008;SDS011;56065;52.472;13.380;2022-10-24T11:12:45;10.57;;;2.17;;
69008;SDS011;56065;52.472;13.380;2022-10-24T11:15:20;8.87;;;2.00;;
69008;SDS011;56065;52.472;13.380;2022-10-24T11:18:16;10.43;;;1.95;;
69008;SDS011;56065;52.472;13.380;2022-10-24T11:20:47;8.73;;;1.70;;
69008;SDS011;56065;52.472;13.380;2022-10-24T11:23:20;7.63;;;1.83;;
69008;SDS011;56065;52.472;13.380;2022-10-24T11:26:35;10.27;;;1.70;;
69008;SDS011;56065;52.472;13.380;2022-10-24T11:31:41;10.20;;;1.88;;
69008;SDS011;56065;52.472;13.380;2022-10-24T11:37:58;8.95;;;2.10;;
69008;SDS011;56065;52.472;13.380;2022-10-24T11:45:18;7.05;;;1.38;;
69008;SDS011;56065;52.472;13.380;2022-10-24T11:50:27;7.78;;;2.05;;
69008;SDS011;56065;52.472;13.380;2022-10-24T11:52:56;9.33;;;1.80;;
69008;SDS011;56065;52.472;13.380;2022-10-24T11:55:27;7.55;;;1.92;;
69008;SDS011;56065;52.472;13.380;2022-10-24T11:58:01;10.13;;;1.70;;
69008;SDS011;56065;52.472;13.380;2022-10-24T12:00:35;10.05;;;1.60;;
69008;SDS011;56065;52.472;13.380;2022-10-24T12:03:33;7.40;;;1.80;;
69008;SDS011;56065;52.472;13.380;2022-10-24T12:09:18;8.52;;;1.88;;
69008;SDS011;56065;52.472;13.380;2022-10-24T12:14:59;8.75;;;1.98;;
69008;SDS011;56065;52.472;13.380;2022-10-24T12:17:39;9.10;;;1.50;;
69008;SDS011;56065;52.472;13.380;2022-10-24T12:20:24;9.03;;;1.70;;
69008;SDS011;56065;52.472;13.380;2022-10-24T12:22:50;7.60;;;1.50;;
69008;SDS011;56065;52.472;13.380;2022-10-24T12:25:19;7.50;;;1.40;;
69008;SDS011;56065;52.472;13.380;2022-10-24T12:28:05;9.10;;;1.48;;
69008;SDS011;56065;52.472;13.380;2022-10-24T12:30:42;9.38;;;1.60;;
69008;SDS011;56065;52.472;13.380;2022-10-24T12:35:44;8.20;;;1.75;;
69008;SDS011;56065;52.472;13.380;2022-10-24T12:46:58;11.73;;;1.55;;
69008;SDS011;56065;52.472;13.380;2022-10-24T12:49:25;9.52;;;1.77;;
69008;SDS011;56065;52.472;13.380;2022-10-24T12:51:52;6.60;;;1.30;;
69008;SDS011;56065;52.472;13.380;2022-10-24T12:54:36;16.93;;;5.67;;
69008;SDS011;56065;52.472;13.380;2022-10-24T12:59:32;14.50;;;3.50;;
69008;SDS011;56065;52.472;13.380;2022-10-24T13:10:30;7.78;;;1.80;;
69008;SDS011;56065;52.472;13.380;2022-10-24T13:21:32;8.65;;;1.33;;
69008;SDS011;56065;52.472;13.380;2022-10-24T13:31:45;8.17;;;1.10;;
69008;SDS011;56065;52.472;13.380;2022-10-24T13:34:16;6.22;;;1.42;;
69008;SDS011;56065;52.472;13.380;2022-10-24T13:36:45;8.45;;;1.42;;
69008;SDS011;56065;52.472;13.380;2022-10-24T13:39:17;7.68;;;1.50;;
69008;SDS011;56065;52.472;13.380;2022-10-24T13:41:48;7.77;;;1.60;;
69008;SDS011;56065;52.472;13.380;2022-10-24T13:46:53;7.03;;;1.60;;
69008;SDS011;56065;52.472;13.380;2022-10-24T13:55:37;7.07;;;1.37;;
69008;SDS011;56065;52.472;13.380;2022-10-24T13:58:10;9.45;;;1.50;;
69008;SDS011;56065;52.472;13.380;2022-10-24T14:00:40;11.50;;;1.90;;
69008;SDS011;56065;52.472;13.380;2022-10-24T14:03:14;12.38;;;1.70;;
69008;SDS011;56065;52.472;13.380;2022-10-24T14:08:34;7.87;;;1.70;;
69008;SDS011;56065;52.472;13.380;2022-10-24T14:11:02;7.38;;;1.55;;
69008;SDS011;56065;52.472;13.380;2022-10-24T14:13:31;8.18;;;1.52;;
69008;SDS011;56065;52.472;13.380;2022-10-24T14:16:02;8.98;;;1.60;;
69008;SDS011;56065;52.472;13.380;2022-10-24T14:18:29;11.50;;;2.35;;
69008;SDS011;56065;52.472;13.380;2022-10-24T14:20:56;9.40;;;2.40;;
69008;SDS011;56065;52.472;13.380;2022-10-24T14:23:28;8.85;;;1.52;;
69008;SDS011;56065;52.472;13.380;2022-10-24T14:28:45;10.45;;;1.70;;
69008;SDS011;56065;52.472;13.380;2022-10-24T14:31:18;9.83;;;1.50;;
69008;SDS011;56065;52.472;13.380;2022-10-24T14:33:55;12.45;;;4.07;;
69008;SDS011;56065;52.472;13.380;2022-10-24T14:36:28;9.00;;;1.80;;
69008;SDS011;56065;52.472;13.380;2022-10-24T14:38:56;8.40;;;1.85;;
69008;SDS011;56065;52.472;13.380;2022-10-24T14:41:25;7.57;;;1.60;;
69008;SDS011;56065;52.472;13.380;2022-10-24T14:43:54;12.43;;;1.80;;
69008;SDS011;56065;52.472;13.380;2022-10-24T14:49:18;8.20;;;1.70;;
69008;SDS011;56065;52.472;13.380;2022-10-24T14:51:49;8.77;;;2.10;;
69008;SDS011;56065;52.472;13.380;2022-10-24T14:54:17;8.93;;;2.05;;
69008;SDS011;56065;52.472;13.380;2022-10-24T14:56:45;11.73;;;1.47;;
69008;SDS011;56065;52.472;13.380;2022-10-24T14:59:18;7.43;;;1.95;;
69008;SDS011;56065;52.472;13.380;2022-10-24T15:01:58;6.05;;;1.48;;
69008;SDS011;56065;52.472;13.380;2022-10-24T15:04:27;12.35;;;1.80;;
69008;SDS011;56065;52.472;13.380;2022-10-24T15:07:47;6.37;;;1.30;;
69008;SDS011;56065;52.472;13.380;2022-10-24T15:09:54;9.88;;;1.80;;
69008;SDS011;56065;52.472;13.380;2022-10-24T15:12:25;9.68;;;1.92;;
69008;SDS011;56065;52.472;13.380;2022-10-24T15:14:57;8.70;;;1.90;;
69008;SDS011;56065;52.472;13.380;2022-10-24T15:17:30;11.38;;;1.85;;
69008;SDS011;56065;52.472;13.380;2022-10-24T15:19:56;11.90;;;1.90;;
69008;SDS011;56065;52.472;13.380;2022-10-24T15:22:28;9.80;;;1.80;;
69008;SDS011;56065;52.472;13.380;2022-10-24T15:24:54;11.20;;;1.90;;
69008;SDS011;56065;52.472;13.380;2022-10-24T15:27:29;7.75;;;1.52;;
69008;SDS011;56065;52.472;13.380;2022-10-24T15:30:01;14.40;;;1.60;;
69008;SDS011;56065;52.472;13.380;2022-10-24T15:32:27;9.90;;;1.87;;
69008;SDS011;56065;52.472;13.380;2022-10-24T15:34:53;8.13;;;1.83;;
69008;SDS011;56065;52.472;13.380;2022-10-24T15:37:21;8.77;;;1.70;;
69008;SDS011;56065;52.472;13.380;2022-10-24T15:39:48;10.30;;;1.92;;
69008;SDS011;56065;52.472;13.380;2022-10-24T15:42:14;7.72;;;2.00;;
69008;SDS011;56065;52.472;13.380;2022-10-24T15:44:40;10.80;;;2.10;;
69008;SDS011;56065;52.472;13.380;2022-10-24T15:47:05;8.43;;;2.10;;
69008;SDS011;56065;52.472;13.380;2022-10-24T15:49:30;6.63;;;1.83;;
69008;SDS011;56065;52.472;13.380;2022-10-24T15:51:57;10.40;;;2.42;;
69008;SDS011;56065;52.472;13.380;2022-10-24T15:54:23;7.53;;;1.95;;
69008;SDS011;56065;52.472;13.380;2022-10-24T15:56:53;14.27;;;2.20;;
69008;SDS011;56065;52.472;13.380;2022-10-24T15:59:18;11.60;;;2.00;;
69008;SDS011;56065;52.472;13.380;2022-10-24T16:01:48;10.50;;;2.10;;
69008;SDS011;56065;52.472;13.380;2022-10-24T16:04:16;10.43;;;2.03;;
69008;SDS011;56065;52.472;13.380;2022-10-24T16:06:42;9.13;;;2.15;;
69008;SDS011;56065;52.472;13.380;2022-10-24T16:09:14;11.83;;;1.93;;
69008;SDS011;56065;52.472;13.380;2022-10-24T16:11:42;7.20;;;1.63;;
69008;SDS011;56065;52.472;13.380;2022-10-24T16:14:12;7.13;;;2.00;;
69008;SDS011;56065;52.472;13.380;2022-10-24T16:16:39;8.55;;;1.80;;
69008;SDS011;56065;52.472;13.380;2022-10-24T16:19:04;7.80;;;1.83;;
69008;SDS011;56065;52.472;13.380;2022-10-24T16:21:29;9.37;;;2.00;;
69008;SDS011;56065;52.472;13.380;2022-10-24T16:23:55;9.05;;;1.83;;
69008;SDS011;56065;52.472;13.380;2022-10-24T16:26:20;7.33;;;1.67;;
69008;SDS011;56065;52.472;13.380;2022-10-24T16:28:46;8.90;;;1.60;;
69008;SDS011;56065;52.472;13.380;2022-10-24T16:31:13;10.90;;;2.07;;
69008;SDS011;56065;52.472;13.380;2022-10-24T16:33:45;7.60;;;1.60;;
69008;SDS011;56065;52.472;13.380;2022-10-24T16:36:11;8.73;;;1.97;;
69008;SDS011;56065;52.472;13.380;2022-10-24T16:38:36;10.52;;;1.85;;
69008;SDS011;56065;52.472;13.380;2022-10-24T16:41:02;8.63;;;2.03;;
69008;SDS011;56065;52.472;13.380;2022-10-24T16:43:27;6.43;;;1.57;;
69008;SDS011;56065;52.472;13.380;2022-10-24T16:45:57;7.25;;;1.58;;